Terminal Aerodrome Forecast
Issued by NWS

Home | Current Version | Previous Version | Text Only | Print | Product List | Glossary On
Versions: 1 2 3 4 5 6 7 8 9 10 11 12 13 14 15 16 17 18 19 20 21 22
000
FTUS42 KFFC 280533
TAFPDK
TAF
KPDK 280533Z 2806/2906 VRB03KT 4SM -SHRA BR SCT012 BKN035
      TEMPO 2806/2808 VRB12G22KT 1SM TSRA BKN012CB
     FM280800 12005KT 5SM BR BKN012
     FM281400 16006KT P6SM VCSH BKN025 PROB30 2816/2822 3SM -TSRA
      BKN030CB
     FM282200 14004KT P6SM BKN035
     FM290400 10003KT P6SM BKN050=

USA.gov is the U.S. government's official web portal to all federal, state and local government web resources and services.